Time;durP1;ratioP1;P1;durP2;ratioP2;P2;SDS_P1;SDS_P2;PMS_P1;PMS_P2;Temp;Humidity;BMP_temperature;BMP_pressure;BME280_temperature;BME280_humidity;BME280_pressure;Samples;Min_cycle;Max_cycle;Signal;HPM_P1;HPM_P2
2022/10/24 00:01:21;;;;;;;7.95;1.30;;;;;;;15.80;100.00;100155.25;5055192;28;20056;-78
2022/10/24 00:03:48;;;;;;;14.30;2.17;;;;;;;15.96;100.00;100148.88;5053694;28;20029;-78
2022/10/24 00:06:13;;;;;;;14.55;1.73;;;;;;;15.89;100.00;100159.75;5032880;28;20496;-78
2022/10/24 00:08:40;;;;;;;4.10;1.42;;;;;;;15.89;100.00;100147.81;5054662;28;20036;-78
2022/10/24 00:11:11;;;;;;;3.83;1.63;;;;;;;15.97;100.00;100139.53;5054868;28;20087;-78
2022/10/24 00:13:38;;;;;;;3.72;1.27;;;;;;;15.92;100.00;100141.94;5036100;28;20056;-78
2022/10/24 00:16:04;;;;;;;14.02;1.38;;;;;;;15.95;100.00;100142.50;5022646;28;20036;-78
2022/10/24 00:18:29;;;;;;;9.57;1.80;;;;;;;15.74;100.00;100133.81;5061873;28;20060;-79
2022/10/24 00:20:54;;;;;;;8.23;1.73;;;;;;;15.72;100.00;100124.88;5036422;28;20373;-79
2022/10/24 00:23:20;;;;;;;8.32;2.10;;;;;;;15.92;100.00;100129.03;5019700;28;20037;-79
2022/10/24 00:25:46;;;;;;;9.32;1.42;;;;;;;15.87;100.00;100131.47;5020342;28;20068;-79
2022/10/24 00:28:12;;;;;;;8.30;1.30;;;;;;;15.98;100.00;100124.69;5050790;28;20045;-79
2022/10/24 00:30:37;;;;;;;16.98;1.88;;;;;;;15.82;100.00;100127.47;5041135;28;20128;-78
2022/10/24 00:33:03;;;;;;;9.73;1.50;;;;;;;15.94;100.00;100129.72;5056657;28;20043;-79
2022/10/24 00:35:28;;;;;;;13.63;1.95;;;;;;;15.85;100.00;100129.91;5056858;28;20064;-79
2022/10/24 00:37:54;;;;;;;11.77;2.28;;;;;;;15.87;100.00;100128.69;5028859;28;20032;-79
2022/10/24 00:40:20;;;;;;;6.25;1.63;;;;;;;15.88;100.00;100132.31;5040448;28;20033;-79
2022/10/24 00:42:47;;;;;;;5.90;1.85;;;;;;;15.85;100.00;100128.00;5038595;28;20048;-79
2022/10/24 00:45:39;;;;;;;10.98;1.88;;;;;;;15.92;100.00;100137.31;5055352;28;20055;-79
2022/10/24 00:48:19;;;;;;;9.80;1.70;;;;;;;15.87;100.00;100131.47;5056635;28;20107;-79
2022/10/24 00:50:46;;;;;;;10.25;1.63;;;;;;;15.68;100.00;100126.25;5057520;28;20069;-79
2022/10/24 00:53:13;;;;;;;10.10;1.80;;;;;;;15.71;100.00;100129.53;5056370;28;20539;-79
2022/10/24 00:55:38;;;;;;;12.48;1.80;;;;;;;15.71;100.00;100117.59;5069062;28;20093;-79
2022/10/24 00:58:05;;;;;;;19.92;2.92;;;;;;;15.82;100.00;100120.06;5056359;28;20552;-79
2022/10/24 01:00:32;;;;;;;4.88;1.55;;;;;;;15.79;100.00;100120.44;5057133;28;20029;-79
2022/10/24 01:02:59;;;;;;;6.50;1.85;;;;;;;15.94;100.00;100115.06;5057043;28;20122;-79
2022/10/24 01:05:29;;;;;;;10.65;2.20;;;;;;;15.87;100.00;100112.13;5051566;28;20485;-78
2022/10/24 01:08:30;;;;;;;7.75;2.40;;;;;;;15.89;100.00;100107.28;5068490;28;20029;-79
2022/10/24 01:11:07;;;;;;;6.10;1.73;;;;;;;15.90;100.00;100117.28;5055478;28;20048;-79
2022/10/24 01:13:55;;;;;;;6.15;1.60;;;;;;;16.03;100.00;100122.28;5038730;28;20036;-79
2022/10/24 01:16:38;;;;;;;7.63;1.83;;;;;;;16.04;100.00;100117.63;5056918;28;20127;-79
2022/10/24 01:19:29;;;;;;;10.35;1.77;;;;;;;16.08;100.00;100124.50;5057841;28;20083;-79
2022/10/24 01:22:00;;;;;;;10.88;1.80;;;;;;;16.01;100.00;100116.06;5061331;28;20403;-79
2022/10/24 01:24:47;;;;;;;10.18;1.85;;;;;;;16.13;100.00;100122.97;5071223;28;20082;-79
2022/10/24 01:27:31;;;;;;;11.25;1.80;;;;;;;16.10;100.00;100123.31;5054554;28;20088;-79
2022/10/24 01:30:03;;;;;;;13.35;1.63;;;;;;;16.17;100.00;100117.94;5056681;28;20033;-79
2022/10/24 01:32:34;;;;;;;9.38;1.80;;;;;;;16.25;100.00;100117.91;5038784;28;20239;-79
2022/10/24 01:35:20;;;;;;;10.18;2.05;;;;;;;16.29;100.00;100104.59;5056425;28;20064;-79
2022/10/24 01:38:00;;;;;;;8.88;2.17;;;;;;;16.13;100.00;100105.50;5057544;28;20076;-79
2022/10/24 01:40:34;;;;;;;4.45;2.05;;;;;;;16.16;100.00;100100.50;5059074;28;20116;-79
2022/10/24 01:43:07;;;;;;;3.28;1.40;;;;;;;16.27;100.00;100096.50;5055713;28;20573;-79
2022/10/24 01:45:38;;;;;;;5.88;1.35;;;;;;;16.21;100.00;100090.81;5055303;28;20060;-78
2022/10/24 01:48:08;;;;;;;11.30;1.10;;;;;;;16.22;100.00;100092.56;5058120;28;20120;-79
2022/10/24 01:50:37;;;;;;;5.88;1.45;;;;;;;16.30;100.00;100082.34;5043008;28;20032;-79
2022/10/24 01:53:03;;;;;;;3.78;1.13;;;;;;;16.34;100.00;100083.69;5064368;28;20591;-79
2022/10/24 01:55:31;;;;;;;3.80;1.05;;;;;;;16.37;100.00;100070.56;5055593;28;20127;-78
2022/10/24 01:57:57;;;;;;;5.75;1.55;;;;;;;16.45;100.00;100078.84;5039451;28;20400;-78
2022/10/24 02:00:23;;;;;;;7.53;1.40;;;;;;;16.41;100.00;100083.84;5057776;28;20037;-79
2022/10/24 02:02:54;;;;;;;2.90;0.80;;;;;;;16.45;100.00;100076.91;5056207;28;20037;-79
2022/10/24 02:05:29;;;;;;;8.95;1.30;;;;;;;16.43;100.00;100078.13;5055352;28;20100;-79
2022/10/24 02:08:00;;;;;;;3.13;0.90;;;;;;;16.31;100.00;100061.09;5055556;28;20036;-79
2022/10/24 02:10:29;;;;;;;9.60;1.10;;;;;;;16.26;100.00;100069.06;5054376;28;20083;-79
2022/10/24 02:13:07;;;;;;;3.20;1.27;;;;;;;16.43;100.00;100065.19;5039950;28;20485;-79
2022/10/24 02:15:38;;;;;;;3.03;0.98;;;;;;;16.27;100.00;100068.88;5055706;28;20056;-79
2022/10/24 02:18:04;;;;;;;6.57;1.02;;;;;;;16.62;100.00;100068.56;5057069;28;20064;-80
2022/10/24 02:20:36;;;;;;;5.07;1.05;;;;;;;16.53;100.00;100071.34;5021740;28;20508;-79
2022/10/24 02:23:36;;;;;;;5.43;1.08;;;;;;;16.47;100.00;100069.31;5053269;28;20116;-79
2022/10/24 02:26:07;;;;;;;2.83;1.10;;;;;;;16.54;100.00;100073.09;5052249;28;20029;-79
2022/10/24 02:28:40;;;;;;;8.38;1.63;;;;;;;16.51;100.00;100069.81;5068815;28;20021;-79
2022/10/24 02:31:11;;;;;;;3.25;0.95;;;;;;;16.32;100.00;100063.66;5042414;28;20033;-79
2022/10/24 02:33:39;;;;;;;4.95;1.20;;;;;;;16.28;100.00;100065.09;5048278;28;20033;-79
2022/10/24 02:36:09;;;;;;;2.55;0.80;;;;;;;16.30;100.00;100067.66;5052726;28;20037;-79
2022/10/24 02:38:43;;;;;;;3.97;1.00;;;;;;;16.39;100.00;100062.97;5058801;28;20029;-79
2022/10/24 02:41:13;;;;;;;3.10;0.93;;;;;;;16.38;100.00;100058.47;5062844;28;20029;-79
2022/10/24 02:43:42;;;;;;;8.13;1.20;;;;;;;16.44;100.00;100055.84;5056387;28;20041;-79
2022/10/24 02:46:09;;;;;;;4.70;0.90;;;;;;;16.56;100.00;100055.44;5035418;28;20133;-79
2022/10/24 02:48:41;;;;;;;6.18;0.90;;;;;;;16.50;100.00;100070.88;5040500;28;20404;-79
2022/10/24 02:51:08;;;;;;;5.53;1.00;;;;;;;16.42;100.00;100065.38;5055025;28;20406;-79
2022/10/24 02:53:35;;;;;;;5.65;1.13;;;;;;;16.27;100.00;100068.03;5038662;28;20033;-79
2022/10/24 02:56:02;;;;;;;2.83;0.80;;;;;;;16.20;100.00;100059.59;5038425;28;20443;-79
2022/10/24 02:58:27;;;;;;;4.90;1.00;;;;;;;16.21;100.00;100060.44;5054711;28;20037;-78
2022/10/24 03:00:53;;;;;;;5.50;1.10;;;;;;;16.22;100.00;100059.41;5059850;28;20532;-79
2022/10/24 03:03:18;;;;;;;5.07;0.82;;;;;;;16.31;100.00;100058.31;5019747;28;20040;-79
2022/10/24 03:05:44;;;;;;;3.47;0.85;;;;;;;16.56;100.00;100066.50;5037042;28;20542;-79
2022/10/24 03:08:10;;;;;;;10.35;1.20;;;;;;;16.51;100.00;100075.31;5038027;28;20043;-79
2022/10/24 03:10:35;;;;;;;6.55;1.02;;;;;;;16.31;100.00;100055.56;5059811;28;20036;-79
2022/10/24 03:13:02;;;;;;;2.97;0.85;;;;;;;16.42;100.00;100070.91;5037408;28;20059;-79
2022/10/24 03:15:28;;;;;;;5.88;0.90;;;;;;;16.57;100.00;100060.78;5074400;28;20075;-79
2022/10/24 03:17:53;;;;;;;8.05;0.73;;;;;;;16.48;100.00;100064.66;5031599;28;20033;-79
2022/10/24 03:20:18;;;;;;;8.63;0.65;;;;;;;16.45;100.00;100071.41;5038984;28;20037;-79
2022/10/24 03:22:44;;;;;;;3.63;0.95;;;;;;;16.37;100.00;100063.13;5037221;28;20041;-78
2022/10/24 03:25:10;;;;;;;7.82;0.93;;;;;;;16.50;100.00;100065.34;5037461;28;20396;-79
2022/10/24 03:27:36;;;;;;;5.43;0.90;;;;;;;16.31;100.00;100064.69;5036137;28;20106;-79
2022/10/24 03:30:02;;;;;;;9.02;1.20;;;;;;;16.31;100.00;100059.19;5056481;28;20495;-79
2022/10/24 03:32:28;;;;;;;7.57;1.00;;;;;;;16.39;100.00;100066.56;5057627;28;20036;-79
2022/10/24 03:34:53;;;;;;;5.72;0.90;;;;;;;16.32;100.00;100060.91;5053564;28;20480;-79
2022/10/24 03:37:19;;;;;;;3.42;1.00;;;;;;;16.39;100.00;100062.97;5052599;28;20037;-78
2022/10/24 03:39:45;;;;;;;8.82;1.00;;;;;;;16.38;100.00;100061.22;5052555;28;20041;-78
2022/10/24 03:42:10;;;;;;;6.80;1.20;;;;;;;16.51;100.00;100064.28;5071048;28;20095;-78
2022/10/24 03:44:36;;;;;;;2.08;0.90;;;;;;;16.33;100.00;100067.28;5041446;28;20028;-78
2022/10/24 03:47:01;;;;;;;5.78;0.93;;;;;;;16.43;100.00;100056.03;5056904;28;20045;-78
2022/10/24 03:49:27;;;;;;;5.70;0.98;;;;;;;16.42;100.00;100066.22;5060040;28;20025;-78
2022/10/24 03:51:52;;;;;;;5.05;0.90;;;;;;;16.33;100.00;100064.53;5020943;28;20037;-77
2022/10/24 03:54:18;;;;;;;3.53;0.80;;;;;;;16.39;100.00;100060.19;5053315;28;20032;-78
2022/10/24 03:56:44;;;;;;;7.22;1.92;;;;;;;16.39;100.00;100057.44;5054481;28;20040;-78
2022/10/24 03:59:10;;;;;;;6.85;1.30;;;;;;;16.29;100.00;100061.25;5053659;28;20069;-78
2022/10/24 04:01:35;;;;;;;2.55;0.77;;;;;;;16.32;100.00;100054.53;5040481;28;20041;-78
2022/10/24 04:04:01;;;;;;;6.43;0.90;;;;;;;16.31;100.00;100070.22;5053534;28;20029;-79
2022/10/24 04:06:26;;;;;;;3.45;0.95;;;;;;;16.42;100.00;100071.75;5070105;28;20032;-79
2022/10/24 04:08:52;;;;;;;8.65;0.75;;;;;;;16.26;100.00;100060.75;5019893;28;20029;-78
2022/10/24 04:11:17;;;;;;;6.95;0.93;;;;;;;16.30;100.00;100063.00;5020806;28;20476;-79
2022/10/24 04:13:43;;;;;;;6.97;1.05;;;;;;;16.23;100.00;100080.44;5036004;28;20041;-78
2022/10/24 04:16:08;;;;;;;4.15;0.80;;;;;;;16.29;100.00;100075.06;5018790;28;20033;-78
2022/10/24 04:18:34;;;;;;;4.72;0.85;;;;;;;16.39;100.00;100082.31;5054124;28;20033;-79
2022/10/24 04:21:00;;;;;;;10.32;1.05;;;;;;;16.33;100.00;100070.03;5037005;28;20082;-80
2022/10/24 04:23:26;;;;;;;4.97;1.02;;;;;;;16.40;100.00;100072.94;5035203;28;20029;-80
2022/10/24 04:25:52;;;;;;;5.07;1.05;;;;;;;16.41;100.00;100082.97;5032782;28;20044;-81
2022/10/24 04:28:17;;;;;;;4.60;0.90;;;;;;;16.32;100.00;100077.47;5037267;28;20049;-81
2022/10/24 04:30:43;;;;;;;2.78;1.00;;;;;;;16.27;100.00;100065.25;5038016;28;20086;-82
2022/10/24 04:33:08;;;;;;;2.92;0.90;;;;;;;16.40;100.00;100064.66;5054193;28;20036;-81
2022/10/24 04:35:34;;;;;;;8.85;1.13;;;;;;;16.43;100.00;100061.56;5037280;28;20044;-79
2022/10/24 04:37:59;;;;;;;11.40;0.80;;;;;;;16.35;100.00;100062.47;5016714;28;20036;-80
2022/10/24 04:40:25;;;;;;;5.10;0.90;;;;;;;16.20;100.00;100078.03;5030046;28;20044;-81
2022/10/24 04:42:50;;;;;;;4.35;0.80;;;;;;;16.20;100.00;100062.34;5032559;28;20091;-79
2022/10/24 04:45:16;;;;;;;4.00;0.73;;;;;;;16.14;100.00;100066.66;5052437;28;20045;-80
2022/10/24 04:47:41;;;;;;;7.40;1.00;;;;;;;16.12;100.00;100065.13;5055572;28;20112;-81
2022/10/24 04:50:07;;;;;;;6.63;0.90;;;;;;;16.12;100.00;100066.00;5028965;28;20039;-79
2022/10/24 04:52:33;;;;;;;11.05;1.33;;;;;;;16.04;100.00;100063.25;5024036;28;20065;-81
2022/10/24 04:54:58;;;;;;;6.70;0.88;;;;;;;16.06;100.00;100074.13;5044705;28;20127;-80
2022/10/24 04:57:24;;;;;;;5.97;0.80;;;;;;;16.01;100.00;100073.78;5052723;28;20041;-80
2022/10/24 04:59:49;;;;;;;7.88;0.90;;;;;;;15.94;100.00;100077.25;5036290;28;20493;-80
2022/10/24 05:02:18;;;;;;;6.75;1.00;;;;;;;15.91;100.00;100083.13;5036574;28;20029;-80
2022/10/24 05:04:43;;;;;;;6.25;1.13;;;;;;;16.04;100.00;100087.25;5033913;28;20059;-79
2022/10/24 05:07:08;;;;;;;7.57;0.75;;;;;;;16.04;100.00;100090.00;5052407;28;20057;-80
2022/10/24 05:09:34;;;;;;;4.65;0.93;;;;;;;16.00;100.00;100095.00;5055474;28;20096;-80
2022/10/24 05:12:01;;;;;;;8.60;1.48;;;;;;;15.99;100.00;100094.16;5053088;28;20048;-80
2022/10/24 05:14:26;;;;;;;7.38;1.00;;;;;;;16.09;100.00;100098.63;5056455;28;20033;-80
2022/10/24 05:16:52;;;;;;;5.80;0.95;;;;;;;16.03;100.00;100089.13;5056358;28;20032;-78
2022/10/24 05:19:18;;;;;;;13.75;1.25;;;;;;;15.97;100.00;100089.84;5037936;28;20484;-80
2022/10/24 05:21:44;;;;;;;5.00;0.80;;;;;;;15.96;100.00;100088.97;5023046;28;20157;-78
2022/10/24 05:24:09;;;;;;;7.38;1.05;;;;;;;15.92;100.00;100082.09;5055051;28;20029;-78
2022/10/24 05:26:34;;;;;;;13.50;1.17;;;;;;;15.85;100.00;100094.88;5058311;28;20053;-79
2022/10/24 05:29:00;;;;;;;6.57;0.95;;;;;;;15.75;100.00;100094.16;5040946;28;20162;-78
2022/10/24 05:31:25;;;;;;;5.20;0.95;;;;;;;15.88;100.00;100100.03;5040056;28;20033;-79
2022/10/24 05:33:51;;;;;;;5.60;1.13;;;;;;;15.81;100.00;100096.25;5056988;28;20119;-79
2022/10/24 05:36:16;;;;;;;6.97;0.95;;;;;;;15.83;100.00;100090.56;5021382;28;20033;-79
2022/10/24 05:38:41;;;;;;;6.43;0.90;;;;;;;15.79;100.00;100106.63;5020821;28;20119;-79
2022/10/24 05:41:07;;;;;;;5.63;1.10;;;;;;;15.80;100.00;100108.31;5056013;28;20037;-79
2022/10/24 05:43:32;;;;;;;10.70;1.48;;;;;;;15.78;100.00;100100.22;5041081;28;20041;-79
2022/10/24 05:45:58;;;;;;;6.82;1.23;;;;;;;15.83;100.00;100104.38;5055640;28;20037;-79
2022/10/24 05:48:23;;;;;;;5.22;0.85;;;;;;;15.87;100.00;100105.72;5057046;28;20032;-79
2022/10/24 05:50:48;;;;;;;8.07;1.10;;;;;;;15.95;100.00;100103.84;5037650;28;20041;-79
2022/10/24 05:53:14;;;;;;;8.13;1.20;;;;;;;15.95;100.00;100112.13;5039627;28;20068;-79
2022/10/24 05:55:40;;;;;;;7.97;1.05;;;;;;;15.95;100.00;100112.13;5037907;28;20048;-79
2022/10/24 05:58:06;;;;;;;9.20;1.23;;;;;;;15.92;100.00;100120.75;5056558;28;20098;-79
2022/10/24 06:00:32;;;;;;;7.55;0.90;;;;;;;15.86;100.00;100120.59;5056063;28;20044;-79
2022/10/24 06:02:59;;;;;;;19.23;1.40;;;;;;;15.98;100.00;100120.03;5056235;28;20064;-79
2022/10/24 06:05:24;;;;;;;10.00;1.33;;;;;;;15.95;100.00;100125.03;5037831;28;20036;-79
2022/10/24 06:07:50;;;;;;;10.93;1.13;;;;;;;15.89;100.00;100117.44;5058690;28;20099;-79
2022/10/24 06:10:15;;;;;;;9.98;0.95;;;;;;;15.93;100.00;100111.41;5022896;28;20051;-79
2022/10/24 06:12:41;;;;;;;8.05;2.00;;;;;;;15.92;100.00;100118.00;5006253;28;20132;-79
2022/10/24 06:15:07;;;;;;;7.70;1.20;;;;;;;15.98;100.00;100121.94;5057378;28;20072;-79
2022/10/24 06:17:33;;;;;;;11.25;1.67;;;;;;;15.87;100.00;100123.19;5056209;28;20074;-79
2022/10/24 06:19:59;;;;;;;6.10;0.93;;;;;;;15.76;100.00;100105.06;5039531;28;20057;-79
2022/10/24 06:22:26;;;;;;;6.78;1.13;;;;;;;15.75;100.00;100107.97;5058193;28;20045;-78
2022/10/24 06:24:52;;;;;;;8.95;1.38;;;;;;;15.71;100.00;100117.59;5055078;28;20045;-79
2022/10/24 06:27:17;;;;;;;8.13;1.15;;;;;;;15.71;100.00;100112.09;5052110;28;20135;-79
2022/10/24 06:29:43;;;;;;;4.90;1.08;;;;;;;15.80;100.00;100117.47;5037759;28;20032;-79
2022/10/24 06:32:09;;;;;;;8.20;0.93;;;;;;;15.65;100.00;100119.19;5038309;28;20445;-79
2022/10/24 06:34:34;;;;;;;12.02;1.63;;;;;;;15.63;100.00;100118.50;5046480;28;20059;-81
2022/10/24 06:37:00;;;;;;;9.68;1.05;;;;;;;15.68;100.00;100126.25;5034143;28;20040;-81
2022/10/24 06:39:25;;;;;;;4.97;0.90;;;;;;;15.65;100.00;100121.09;5017659;28;20124;-78
2022/10/24 06:41:50;;;;;;;4.70;0.93;;;;;;;15.62;100.00;100128.66;5053121;28;20040;-79
2022/10/24 06:44:16;;;;;;;12.57;1.00;;;;;;;15.62;100.00;100138.84;5023178;28;20563;-79
2022/10/24 06:46:41;;;;;;;7.32;0.93;;;;;;;15.62;100.00;100133.31;5037845;28;20045;-79
2022/10/24 06:49:07;;;;;;;12.75;1.25;;;;;;;15.63;100.00;100138.66;5018985;28;20079;-80
2022/10/24 06:51:32;;;;;;;4.75;0.90;;;;;;;15.56;100.00;100137.63;5035288;28;20154;-79
2022/10/24 06:53:58;;;;;;;11.90;1.30;;;;;;;15.57;100.00;100139.34;5020941;28;20048;-80
2022/10/24 06:56:25;;;;;;;8.10;0.90;;;;;;;15.66;100.00;100148.50;5055225;28;20028;-80
2022/10/24 06:58:50;;;;;;;8.02;1.25;;;;;;;15.67;100.00;100133.66;5052696;28;20580;-79
2022/10/24 07:01:18;;;;;;;9.90;1.75;;;;;;;15.67;100.00;100144.69;5031753;28;20029;-81
2022/10/24 07:03:44;;;;;;;6.80;1.20;;;;;;;15.78;100.00;100149.06;5068391;28;20033;-80
2022/10/24 07:06:16;;;;;;;13.15;1.33;;;;;;;15.84;100.00;100148.38;5053732;28;20029;-80
2022/10/24 07:08:42;;;;;;;11.47;1.07;;;;;;;15.88;100.00;100148.88;5050217;28;20086;-80
2022/10/24 07:11:08;;;;;;;6.82;1.02;;;;;;;15.84;100.00;100158.53;5045302;28;20033;-80
2022/10/24 07:13:33;;;;;;;12.43;1.08;;;;;;;15.84;100.00;100161.28;5031587;28;20048;-80
2022/10/24 07:15:59;;;;;;;8.23;1.58;;;;;;;15.80;100.00;100156.09;5024857;28;20071;-80
2022/10/24 07:18:24;;;;;;;8.10;1.42;;;;;;;15.89;100.00;100158.88;5033110;28;20400;-80
2022/10/24 07:20:50;;;;;;;7.70;1.05;;;;;;;15.97;100.00;100164.38;5052892;28;20033;-80
2022/10/24 07:23:15;;;;;;;7.28;1.10;;;;;;;16.25;100.00;100164.88;5030866;28;20508;-81
2022/10/24 07:25:41;;;;;;;7.15;1.25;;;;;;;16.37;100.00;100170.91;5031604;28;20110;-81
2022/10/24 07:28:09;;;;;;;9.05;1.05;;;;;;;16.23;100.00;100164.16;5059512;28;20037;-81
2022/10/24 07:30:35;;;;;;;9.63;1.05;;;;;;;16.15;100.00;100161.44;5054885;28;20061;-80
2022/10/24 07:33:00;;;;;;;10.98;1.42;;;;;;;16.13;100.00;100163.50;5053959;28;20036;-80
2022/10/24 07:35:26;;;;;;;5.65;0.80;;;;;;;16.07;100.00;100161.44;5037619;28;20543;-81
2022/10/24 07:37:52;;;;;;;7.90;1.27;;;;;;;16.16;100.00;100169.53;5024829;28;20029;-80
2022/10/24 07:40:18;;;;;;;7.22;1.10;;;;;;;16.06;100.00;100170.78;5036704;28;20052;-79
2022/10/24 07:42:43;;;;;;;10.35;1.50;;;;;;;16.24;100.00;100176.09;5052881;28;20481;-81
2022/10/24 07:45:09;;;;;;;6.72;1.30;;;;;;;16.26;100.00;100179.53;5037589;28;20033;-81
2022/10/24 07:47:35;;;;;;;7.47;1.20;;;;;;;16.16;100.00;100186.13;5019139;28;20084;-82
2022/10/24 07:50:00;;;;;;;11.00;1.10;;;;;;;16.17;100.00;100190.59;5039518;28;20108;-79
2022/10/24 07:52:25;;;;;;;13.32;1.23;;;;;;;16.33;100.00;100192.50;5055209;28;20175;-79
2022/10/24 07:54:54;;;;;;;14.10;1.50;;;;;;;16.38;100.00;100191.09;5035860;28;20033;-79
2022/10/24 07:57:20;;;;;;;7.60;1.70;;;;;;;16.34;100.00;100185.91;5055348;28;20098;-82
2022/10/24 07:59:53;;;;;;;10.48;2.58;;;;;;;16.46;100.00;100197.47;5038433;28;20029;-81
2022/10/24 08:02:18;;;;;;;9.85;1.20;;;;;;;16.54;100.00;100197.47;5046902;28;20040;-81
2022/10/24 08:04:43;;;;;;;12.00;1.10;;;;;;;16.45;100.00;100214.22;5006368;28;20064;-82
2022/10/24 08:07:13;;;;;;;11.57;1.85;;;;;;;16.55;100.00;100214.91;5055323;28;20071;-82
2022/10/24 08:09:41;;;;;;;7.90;1.00;;;;;;;16.45;100.00;100208.72;5072374;28;20024;-81
2022/10/24 08:12:07;;;;;;;12.73;1.83;;;;;;;16.40;100.00;100213.88;5053428;28;20120;-82
2022/10/24 08:14:33;;;;;;;12.18;1.52;;;;;;;16.36;100.00;100205.06;5053754;28;20517;-81
2022/10/24 08:16:58;;;;;;;11.52;1.52;;;;;;;16.44;100.00;100223.56;5021331;28;20029;-81
2022/10/24 08:19:23;;;;;;;19.48;1.55;;;;;;;16.44;100.00;100231.84;5054305;28;20045;-81
2022/10/24 08:21:52;;;;;;;16.30;1.50;;;;;;;16.50;100.00;100223.72;5024789;28;20052;-81
2022/10/24 08:24:17;;;;;;;10.18;1.27;;;;;;;16.61;100.00;100222.50;5022192;28;20029;-82
2022/10/24 08:26:43;;;;;;;8.32;1.63;;;;;;;16.88;100.00;100231.41;5029560;28;20397;-82
2022/10/24 08:29:13;;;;;;;13.60;1.23;;;;;;;16.79;100.00;100221.38;5027784;28;20107;-81
2022/10/24 08:31:39;;;;;;;8.40;1.15;;;;;;;16.83;100.00;100250.41;5035261;28;20056;-80
2022/10/24 08:34:05;;;;;;;15.50;1.48;;;;;;;16.77;100.00;100248.34;5053288;28;20496;-80
2022/10/24 08:36:33;;;;;;;9.48;1.25;;;;;;;16.82;100.00;100257.84;5053590;28;20029;-80
2022/10/24 08:38:59;;;;;;;6.28;0.82;;;;;;;16.86;100.00;100250.94;5052039;28;20037;-79
2022/10/24 08:41:59;;;;;;;11.50;1.25;;;;;;;16.92;100.00;100249.34;5034814;28;20052;-81
2022/10/24 08:44:29;;;;;;;7.82;1.08;;;;;;;16.87;100.00;100252.69;5020387;28;20029;-81
2022/10/24 08:47:12;;;;;;;12.73;1.30;;;;;;;16.78;100.00;100250.09;5037970;28;20075;-80
2022/10/24 08:50:16;;;;;;;11.50;1.50;;;;;;;16.85;100.00;100262.19;5039835;28;20047;-81
2022/10/24 08:52:54;;;;;;;8.32;1.00;;;;;;;16.80;100.00;100261.81;5034090;28;20183;-81
2022/10/24 08:55:26;;;;;;;11.18;0.95;;;;;;;16.76;100.00;100261.31;5049334;28;20492;-81
2022/10/24 08:57:58;;;;;;;12.23;1.60;;;;;;;16.73;100.00;100264.44;5042226;28;20376;-80
2022/10/24 09:00:33;;;;;;;9.52;1.13;;;;;;;16.69;100.00;100255.63;5038944;28;20029;-80
2022/10/24 09:03:05;;;;;;;7.63;1.02;;;;;;;16.72;100.00;100265.47;5051340;28;20032;-80
2022/10/24 09:05:42;;;;;;;15.40;1.60;;;;;;;16.88;100.00;100278.44;5047589;28;20465;-80
2022/10/24 09:08:26;;;;;;;11.15;1.40;;;;;;;16.72;100.00;100269.13;5055783;28;20028;-80
2022/10/24 09:11:04;;;;;;;8.30;1.55;;;;;;;16.74;100.00;100274.44;5056722;28;20033;-80
2022/10/24 09:13:34;;;;;;;11.05;1.13;;;;;;;16.69;100.00;100269.47;5056904;28;20029;-80
2022/10/24 09:15:59;;;;;;;11.60;1.25;;;;;;;16.66;100.00;100271.69;5055990;28;20041;-80
2022/10/24 09:18:36;;;;;;;14.43;1.25;;;;;;;16.67;100.00;100276.19;5023760;28;20395;-80
2022/10/24 09:21:05;;;;;;;13.88;1.02;;;;;;;16.81;100.00;100294.84;5053697;28;20056;-81
2022/10/24 09:23:32;;;;;;;11.50;1.88;;;;;;;16.85;100.00;100278.78;5056002;28;20045;-80
2022/10/24 09:25:58;;;;;;;9.95;1.15;;;;;;;16.81;100.00;100285.69;5039243;28;20395;-80
2022/10/24 09:28:24;;;;;;;15.30;1.27;;;;;;;16.99;100.00;100283.59;5055452;28;20124;-81
2022/10/24 09:30:50;;;;;;;15.27;1.58;;;;;;;17.19;100.00;100285.94;5040750;28;20079;-81
2022/10/24 09:33:25;;;;;;;15.38;1.45;;;;;;;17.16;100.00;100289.91;5040794;28;20044;-80
2022/10/24 09:35:54;;;;;;;7.65;1.40;;;;;;;16.98;100.00;100300.34;5044703;28;20044;-81
2022/10/24 09:38:26;;;;;;;9.45;1.30;;;;;;;17.60;100.00;100291.28;5056354;28;20036;-81
2022/10/24 09:40:53;;;;;;;;;;;;;;;18.00;100.00;100304.06;5058382;28;20103;-81
2022/10/24 09:43:42;;;;;;;14.18;1.05;;;;;;;17.80;100.00;100305.53;5039650;28;19966;-80
2022/10/24 09:46:11;;;;;;;12.82;1.40;;;;;;;17.45;100.00;100300.34;5057481;28;20029;-80
2022/10/24 09:48:55;;;;;;;7.28;1.10;;;;;;;17.47;100.00;100310.38;5039303;28;20120;-81
2022/10/24 09:51:41;;;;;;;11.77;1.38;;;;;;;17.34;100.00;100311.81;5055770;28;20384;-80
2022/10/24 09:54:19;;;;;;;12.65;2.15;;;;;;;17.26;100.00;100318.22;5056631;28;20043;-79
2022/10/24 09:57:03;;;;;;;8.30;1.00;;;;;;;17.46;100.00;100312.25;5068027;28;20087;-79
2022/10/24 09:59:36;;;;;;;14.85;1.75;;;;;;;17.50;100.00;100329.41;5056153;28;20029;-79
2022/10/24 10:02:23;;;;;;;14.77;1.23;;;;;;;17.31;100.00;100326.00;5037861;28;20025;-80
2022/10/24 10:05:00;;;;;;;11.13;1.38;;;;;;;17.34;100.00;100333.09;5052568;28;20370;-80
2022/10/24 10:07:31;;;;;;;9.52;1.30;;;;;;;17.30;100.00;100328.94;5036570;28;20477;-79
2022/10/24 10:10:01;;;;;;;12.18;1.85;;;;;;;17.98;100.00;100328.28;5055325;28;20029;-80
2022/10/24 10:12:37;;;;;;;13.90;1.55;;;;;;;18.40;100.00;100339.06;5039878;28;20029;-80
2022/10/24 10:15:25;;;;;;;11.00;1.92;;;;;;;17.98;100.00;100331.06;5055220;28;20036;-79
2022/10/24 10:17:55;;;;;;;9.40;1.10;;;;;;;18.07;100.00;100326.34;5055344;28;20033;-79
2022/10/24 10:20:41;;;;;;;13.10;1.75;;;;;;;18.07;100.00;100340.19;5038676;28;20393;-79
2022/10/24 10:23:23;;;;;;;16.33;1.75;;;;;;;18.07;100.00;100336.53;5038789;28;20544;-79
2022/10/24 10:25:48;;;;;;;10.57;0.88;;;;;;;17.98;100.00;100338.50;5055327;28;20064;-79
2022/10/24 10:28:22;;;;;;;9.05;1.17;;;;;;;18.30;100.00;100342.09;5038551;28;20396;-79
2022/10/24 10:30:54;;;;;;;14.90;1.58;;;;;;;18.06;100.00;100332.91;5058340;28;20120;-79
2022/10/24 10:33:35;;;;;;;7.37;1.27;;;;;;;17.96;100.00;100341.47;5056089;28;20116;-80
2022/10/24 10:36:10;;;;;;;11.82;1.60;;;;;;;17.84;100.00;100340.13;5056345;28;20044;-80
2022/10/24 10:38:46;;;;;;;11.63;1.92;;;;;;;17.81;100.00;100335.81;5054977;28;20075;-79
2022/10/24 10:41:12;;;;;;;7.90;1.25;;;;;;;17.93;100.00;100341.81;5052894;28;20033;-80
2022/10/24 10:43:56;;;;;;;7.10;1.15;;;;;;;17.92;100.00;100347.53;5019396;28;20558;-80
2022/10/24 10:46:48;;;;;;;7.70;1.38;;;;;;;17.87;100.00;100353.63;5029236;28;20036;-80
2022/10/24 10:49:38;;;;;;;9.63;1.10;;;;;;;17.99;100.00;100360.50;5016942;28;20037;-80
2022/10/24 10:52:30;;;;;;;13.95;1.50;;;;;;;17.91;100.00;100379.94;5055250;28;20064;-80
2022/10/24 10:55:28;;;;;;;11.60;1.20;;;;;;;17.90;100.00;100372.66;5055518;28;20075;-80
2022/10/24 10:57:59;;;;;;;9.18;0.73;;;;;;;17.83;100.00;100364.16;5038205;28;20033;-80
2022/10/24 11:00:51;;;;;;;10.00;1.08;;;;;;;17.78;100.00;100369.41;5055758;28;20069;-80
2022/10/24 11:03:25;;;;;;;7.97;1.05;;;;;;;17.75;100.00;100372.53;5034897;28;20040;-79
2022/10/24 11:05:57;;;;;;;14.73;1.63;;;;;;;17.75;100.00;100378.06;5031177;28;20056;-79
2022/10/24 11:08:40;;;;;;;9.80;1.13;;;;;;;17.68;100.00;100376.22;5054884;28;20368;-80
2022/10/24 11:11:23;;;;;;;10.65;1.55;;;;;;;17.66;100.00;100362.53;5055260;28;20119;-80
2022/10/24 11:13:58;;;;;;;9.65;1.30;;;;;;;17.92;100.00;100370.59;5037989;28;20067;-80
2022/10/24 11:16:28;;;;;;;6.70;1.02;;;;;;;18.03;100.00;100372.06;5054136;28;20033;-79
2022/10/24 11:19:07;;;;;;;7.93;1.20;;;;;;;18.09;100.00;100376.03;5037100;28;20025;-80
2022/10/24 11:21:35;;;;;;;10.52;1.20;;;;;;;18.27;100.00;100375.75;5055420;28;20033;-80
2022/10/24 11:24:19;;;;;;;14.27;2.92;;;;;;;18.66;100.00;100374.72;5055940;28;20033;-80
2022/10/24 11:26:57;;;;;;;8.88;1.30;;;;;;;18.81;100.00;100375.66;5054063;28;20040;-79